Mansfield, Massachusetts
Current Conditions -  °F | °C
As of 12:53 PM on Thursday 27 Nov 2014 (Local Time) from KOWD Reporting Station
Overcast Overcast  
Wind Chill: 35°   Ceiling: 4300
Heat Index: 39°   Visibility: 10mi
Dew Point: 30°   Wind: 6mph
Humidity: 70%   Direction: NA
Pressure: 29.94"   Gusts: NA
Location:  42.03°N, 71.22°W
Report Text: KOWD 271753Z VRB05KT 10SM FEW021 OVC043 04/M01 A2994 RMK AO2 SLP138 T00391011 10050 20006 55009
Loading
Personal Weather Stations






























Interactive Weather Map New forecast layout! Learn more

10-Day Weather Forecast

Advertisements
Track Severe Weather on mobile